createdAt,value
2017-01-06T00:00:07.654Z,0
2017-01-06T00:01:07.626Z,0
2017-01-06T00:02:07.604Z,0
2017-01-06T00:03:07.570Z,0
2017-01-06T00:04:07.543Z,0
2017-01-06T00:05:07.510Z,0
2017-01-06T00:06:07.504Z,0
2017-01-06T00:07:07.455Z,0
2017-01-06T00:08:07.410Z,0
2017-01-06T00:09:07.385Z,0
2017-01-06T00:10:07.352Z,0
2017-01-06T00:11:07.330Z,0
2017-01-06T00:12:07.314Z,0
2017-01-06T00:13:07.267Z,0
2017-01-06T00:14:07.243Z,0
2017-01-06T00:15:07.208Z,0
2017-01-06T00:16:07.178Z,0
2017-01-06T00:17:07.346Z,0
2017-01-06T00:18:07.128Z,0
2017-01-06T00:19:07.118Z,0
2017-01-06T00:20:07.059Z,0
2017-01-06T00:21:07.041Z,0
2017-01-06T00:22:07.395Z,0
2017-01-06T00:23:06.972Z,0
2017-01-06T00:24:06.942Z,0
2017-01-06T00:25:06.914Z,0
2017-01-06T00:26:06.891Z,0
2017-01-06T00:27:06.863Z,0
2017-01-06T00:28:06.835Z,0
2017-01-06T00:29:06.793Z,0
2017-01-06T00:30:06.799Z,0
2017-01-06T00:31:06.734Z,0
2017-01-06T00:32:06.723Z,0
2017-01-06T00:33:06.682Z,0
2017-01-06T00:34:06.643Z,0
2017-01-06T00:35:06.631Z,0
2017-01-06T00:36:06.584Z,0
2017-01-06T00:37:06.575Z,0
2017-01-06T00:38:06.521Z,0
2017-01-06T00:39:06.498Z,0
2017-01-06T00:40:06.479Z,0
2017-01-06T00:41:06.434Z,0
2017-01-06T00:42:06.401Z,0
2017-01-06T00:43:06.381Z,0
2017-01-06T00:44:06.340Z,0
2017-01-06T00:45:06.308Z,0
2017-01-06T00:46:06.276Z,0
2017-01-06T00:47:06.250Z,0
2017-01-06T00:48:06.227Z,0
2017-01-06T00:49:06.201Z,0
2017-01-06T00:50:06.168Z,0
2017-01-06T00:51:06.143Z,0
2017-01-06T00:52:06.099Z,0
2017-01-06T00:53:38.175Z,0
2017-01-06T00:54:06.040Z,0
2017-01-06T00:55:06.008Z,0
2017-01-06T00:56:05.988Z,0
2017-01-06T00:57:05.946Z,0
2017-01-06T00:58:05.916Z,0
2017-01-06T00:59:05.877Z,0
2017-01-06T01:00:05.877Z,0
2017-01-06T01:01:05.826Z,0
2017-01-06T01:02:05.786Z,0
2017-01-06T01:03:05.772Z,0
2017-01-06T01:04:05.734Z,0
2017-01-06T01:05:05.739Z,0
2017-01-06T01:06:05.696Z,0
2017-01-06T01:07:05.655Z,0
2017-01-06T01:08:05.808Z,0
2017-01-06T01:09:05.794Z,0
2017-01-06T01:10:05.944Z,0
2017-01-06T01:11:05.517Z,0
2017-01-06T01:12:05.490Z,0
2017-01-06T01:13:05.460Z,0
2017-01-06T01:14:05.430Z,0
2017-01-06T01:15:05.399Z,0
2017-01-06T01:16:05.400Z,0
2017-01-06T01:17:05.339Z,0
2017-01-06T01:18:05.303Z,0
2017-01-06T01:19:05.283Z,0
2017-01-06T01:20:05.257Z,0
2017-01-06T01:21:05.209Z,0
2017-01-06T01:22:05.194Z,0
2017-01-06T01:23:05.162Z,0
2017-01-06T01:24:05.126Z,0
2017-01-06T01:25:05.093Z,0
2017-01-06T01:26:05.083Z,0
2017-01-06T01:27:05.033Z,0
2017-01-06T01:28:05.019Z,0
2017-01-06T01:29:04.970Z,0
2017-01-06T01:30:04.945Z,0
2017-01-06T01:31:04.917Z,0
2017-01-06T01:32:04.873Z,0
2017-01-06T01:33:04.853Z,0
2017-01-06T01:34:05.041Z,0
2017-01-06T01:35:05.184Z,0
2017-01-06T01:36:04.766Z,0
2017-01-06T01:37:04.733Z,0
2017-01-06T01:38:04.705Z,0
2017-01-06T01:39:04.674Z,0
2017-01-06T01:40:04.636Z,0
2017-01-06T01:41:04.610Z,0
2017-01-06T01:42:05.004Z,0
2017-01-06T01:43:04.565Z,0
2017-01-06T01:44:04.950Z,0
2017-01-06T01:45:04.487Z,0
2017-01-06T01:46:04.461Z,0
2017-01-06T01:47:04.446Z,0
2017-01-06T01:48:04.400Z,0
2017-01-06T01:49:04.388Z,0
2017-01-06T01:50:04.352Z,0
2017-01-06T01:51:04.315Z,0
2017-01-06T01:52:04.298Z,0
2017-01-06T01:53:04.263Z,0
2017-01-06T01:54:04.225Z,0
2017-01-06T01:55:04.200Z,0
2017-01-06T01:56:04.172Z,0
2017-01-06T01:57:04.142Z,0
2017-01-06T01:58:04.113Z,0
2017-01-06T01:59:04.470Z,0
2017-01-06T02:00:04.042Z,0
2017-01-06T02:01:04.017Z,0
2017-01-06T02:02:03.981Z,0
2017-01-06T02:03:03.951Z,0
2017-01-06T02:04:03.936Z,0
2017-01-06T02:05:03.889Z,0
2017-01-06T02:06:03.876Z,0
2017-01-06T02:07:03.837Z,0
2017-01-06T02:08:03.805Z,0
2017-01-06T02:09:03.771Z,0
2017-01-06T02:10:04.123Z,0
2017-01-06T02:11:03.713Z,0
2017-01-06T02:12:04.067Z,0
2017-01-06T02:13:03.649Z,0
2017-01-06T02:14:03.631Z,0
2017-01-06T02:15:03.582Z,0
2017-01-06T02:16:03.561Z,0
2017-01-06T02:17:03.911Z,0
2017-01-06T02:18:03.492Z,0
2017-01-06T02:19:03.460Z,0
2017-01-06T02:20:03.442Z,0
2017-01-06T02:21:03.399Z,0
2017-01-06T02:22:03.387Z,0
2017-01-06T02:23:03.340Z,0
2017-01-06T02:24:03.305Z,0
2017-01-06T02:25:03.474Z,0
2017-01-06T02:26:03.250Z,0
2017-01-06T02:27:03.218Z,0
2017-01-06T02:28:03.193Z,0
2017-01-06T02:29:03.163Z,0
2017-01-06T02:30:03.122Z,0
2017-01-06T02:31:03.099Z,0
2017-01-06T02:32:03.062Z,0
2017-01-06T02:33:03.036Z,0
2017-01-06T02:34:03.001Z,0
2017-01-06T02:35:02.977Z,0
2017-01-06T02:36:02.937Z,0
2017-01-06T02:37:02.915Z,0
2017-01-06T02:38:02.894Z,0
2017-01-06T02:39:02.851Z,0
2017-01-06T02:40:02.829Z,0
2017-01-06T02:41:02.796Z,0
2017-01-06T02:42:02.754Z,0
2017-01-06T02:43:02.743Z,0
2017-01-06T02:44:02.699Z,0
2017-01-06T02:45:02.663Z,0
2017-01-06T02:46:02.641Z,0
2017-01-06T02:47:02.616Z,0
2017-01-06T02:48:02.579Z,0
2017-01-06T02:49:02.564Z,0
2017-01-06T02:50:02.893Z,0
2017-01-06T02:51:02.681Z,0
2017-01-06T02:52:02.456Z,0
2017-01-06T02:53:02.428Z,0
2017-01-06T02:54:02.388Z,0
2017-01-06T02:55:02.364Z,0
2017-01-06T02:56:02.341Z,0
2017-01-06T02:57:02.308Z,0
2017-01-06T02:58:02.268Z,0
2017-01-06T02:59:02.230Z,0
2017-01-06T03:00:02.209Z,0
2017-01-06T03:01:02.174Z,0
2017-01-06T03:02:02.138Z,0
2017-01-06T03:03:02.112Z,0
2017-01-06T03:04:02.092Z,0
2017-01-06T03:05:02.051Z,0
2017-01-06T03:06:02.025Z,0
2017-01-06T03:07:02.000Z,0
2017-01-06T03:08:01.978Z,0
2017-01-06T03:09:01.926Z,0
2017-01-06T03:10:01.908Z,0
2017-01-06T03:11:01.881Z,0
2017-01-06T03:12:01.836Z,0
2017-01-06T03:13:01.804Z,0
2017-01-06T03:14:01.782Z,0
2017-01-06T03:15:01.757Z,0
2017-01-06T03:16:01.716Z,0
2017-01-06T03:17:01.693Z,0
2017-01-06T03:18:01.663Z,0
2017-01-06T03:19:01.623Z,0
2017-01-06T03:20:01.593Z,0
2017-01-06T03:21:01.575Z,0
2017-01-06T03:22:01.526Z,0
2017-01-06T03:23:01.510Z,0
2017-01-06T03:24:01.476Z,0
2017-01-06T03:25:01.447Z,0
2017-01-06T03:26:01.411Z,0
2017-01-06T03:27:01.389Z,0
2017-01-06T03:28:01.364Z,0
2017-01-06T03:29:01.335Z,0
2017-01-06T03:30:01.297Z,0
2017-01-06T03:31:01.252Z,0
2017-01-06T03:32:01.242Z,0
2017-01-06T03:33:01.211Z,0
2017-01-06T03:34:01.181Z,0
2017-01-06T03:35:01.197Z,0
2017-01-06T03:36:01.111Z,0
2017-01-06T03:37:01.087Z,0
2017-01-06T03:38:01.058Z,0
2017-01-06T03:39:01.023Z,0
2017-01-06T03:40:00.981Z,0
2017-01-06T03:41:00.944Z,0
2017-01-06T03:42:00.930Z,0
2017-01-06T03:43:00.888Z,0
2017-01-06T03:44:00.876Z,0
2017-01-06T03:45:00.834Z,0
2017-01-06T03:46:00.808Z,0
2017-01-06T03:47:00.770Z,0
2017-01-06T03:48:00.738Z,0
2017-01-06T03:49:00.706Z,0
2017-01-06T03:50:00.680Z,0
2017-01-06T03:51:00.659Z,0
2017-01-06T03:52:00.620Z,0
2017-01-06T03:53:00.589Z,0
2017-01-06T03:54:00.566Z,0
2017-01-06T03:55:00.534Z,0
2017-01-06T03:56:00.508Z,0
2017-01-06T03:57:00.475Z,0
2017-01-06T03:58:00.427Z,0
2017-01-06T03:59:00.407Z,0
2017-01-06T04:00:00.367Z,0
2017-01-06T04:01:00.354Z,0
2017-01-06T04:02:00.313Z,0
2017-01-06T04:03:00.295Z,0
2017-01-06T04:04:00.284Z,0
2017-01-06T04:05:00.221Z,0
2017-01-06T04:06:00.189Z,0
2017-01-06T04:07:00.163Z,0
2017-01-06T04:08:00.134Z,0
2017-01-06T04:09:00.106Z,0
2017-01-06T04:10:00.077Z,0
2017-01-06T04:11:00.046Z,0
2017-01-06T04:12:00.013Z,0
2017-01-06T04:12:59.980Z,0
2017-01-06T04:13:59.951Z,0
2017-01-06T04:14:59.918Z,0
2017-01-06T04:15:59.899Z,0
2017-01-06T04:17:00.258Z,0
2017-01-06T04:17:59.865Z,0
2017-01-06T04:18:59.799Z,0
2017-01-06T04:19:59.766Z,0
2017-01-06T04:20:59.749Z,0
2017-01-06T04:21:59.706Z,0
2017-01-06T04:22:59.676Z,0
2017-01-06T04:23:59.659Z,0
2017-01-06T04:24:59.618Z,0
2017-01-06T04:25:59.589Z,0
2017-01-06T04:26:59.554Z,0
2017-01-06T04:27:59.542Z,0
2017-01-06T04:28:59.503Z,0
2017-01-06T04:29:59.476Z,0
2017-01-06T04:30:59.442Z,0
2017-01-06T04:31:59.408Z,0
2017-01-06T04:32:59.393Z,0
2017-01-06T04:33:59.346Z,0
2017-01-06T04:34:59.316Z,0
2017-01-06T04:35:59.299Z,0
2017-01-06T04:36:59.257Z,0
2017-01-06T04:37:59.241Z,0
2017-01-06T04:38:59.192Z,0
2017-01-06T04:39:59.175Z,0
2017-01-06T04:40:59.132Z,0
2017-01-06T04:41:59.094Z,0
2017-01-06T04:42:59.073Z,0
2017-01-06T04:43:59.061Z,0
2017-01-06T04:44:59.016Z,0
2017-01-06T04:45:58.987Z,0
2017-01-06T04:46:58.966Z,0
2017-01-06T04:47:58.936Z,0
2017-01-06T04:48:58.897Z,0
2017-01-06T04:49:58.862Z,0
2017-01-06T04:50:58.839Z,0
2017-01-06T04:51:58.803Z,0
2017-01-06T04:52:58.779Z,0
2017-01-06T04:53:58.752Z,0
2017-01-06T04:54:58.708Z,0
2017-01-06T04:55:58.683Z,0
2017-01-06T04:56:58.653Z,0
2017-01-06T04:57:58.620Z,0
2017-01-06T04:58:58.592Z,0
2017-01-06T04:59:58.558Z,0
2017-01-06T05:00:58.520Z,0
2017-01-06T05:01:58.490Z,0
2017-01-06T05:02:58.851Z,0
2017-01-06T05:03:58.437Z,0
2017-01-06T05:04:58.393Z,0
2017-01-06T05:05:58.375Z,0
2017-01-06T05:06:58.352Z,0
2017-01-06T05:07:58.302Z,0
2017-01-06T05:08:58.275Z,0
2017-01-06T05:09:58.249Z,0
2017-01-06T05:10:58.223Z,0
2017-01-06T05:11:58.189Z,0
2017-01-06T05:12:58.158Z,0
2017-01-06T05:13:58.123Z,0
2017-01-06T05:14:58.088Z,0
2017-01-06T05:15:58.063Z,0
2017-01-06T05:16:58.032Z,0
2017-01-06T05:17:57.994Z,0
2017-01-06T05:18:58.354Z,0
2017-01-06T05:19:57.945Z,0
2017-01-06T05:20:57.913Z,0
2017-01-06T05:21:57.870Z,0
2017-01-06T05:22:57.851Z,0
2017-01-06T05:23:57.820Z,0
2017-01-06T05:24:57.775Z,0
2017-01-06T05:25:57.787Z,0
2017-01-06T05:26:57.725Z,0
2017-01-06T05:27:57.687Z,0
2017-01-06T05:28:57.662Z,0
2017-01-06T05:29:57.623Z,0
2017-01-06T05:30:57.594Z,0
2017-01-06T05:31:57.568Z,0
2017-01-06T05:32:57.538Z,0
2017-01-06T05:33:57.501Z,0
2017-01-06T05:34:57.483Z,0
2017-01-06T05:35:57.447Z,0
2017-01-06T05:36:57.415Z,0
2017-01-06T05:37:57.387Z,0
2017-01-06T05:38:57.357Z,0
2017-01-06T05:39:57.323Z,0
2017-01-06T05:40:57.297Z,0
2017-01-06T05:41:57.265Z,0
2017-01-06T05:42:57.236Z,0
2017-01-06T05:43:57.211Z,0
2017-01-06T05:44:57.171Z,0
2017-01-06T05:45:57.523Z,0
2017-01-06T05:46:57.094Z,0
2017-01-06T05:47:57.072Z,0
2017-01-06T05:48:57.043Z,0
2017-01-06T05:49:57.014Z,0
2017-01-06T05:50:56.984Z,0
2017-01-06T05:51:56.965Z,0
2017-01-06T05:52:56.920Z,0
2017-01-06T05:53:56.893Z,0
2017-01-06T05:54:56.850Z,0
2017-01-06T05:55:56.830Z,0
2017-01-06T05:56:56.788Z,0
2017-01-06T05:57:56.769Z,0
2017-01-06T05:58:56.732Z,0
2017-01-06T05:59:56.688Z,0
2017-01-06T06:00:56.661Z,0
2017-01-06T06:01:56.625Z,0
2017-01-06T06:02:56.592Z,0
2017-01-06T06:03:56.569Z,0
2017-01-06T06:04:56.534Z,0
2017-01-06T06:05:56.513Z,0
2017-01-06T06:06:56.471Z,0
2017-01-06T06:07:56.470Z,0
2017-01-06T06:08:56.418Z,0
2017-01-06T06:09:56.373Z,0
2017-01-06T06:10:56.347Z,0
2017-01-06T06:11:56.306Z,0
2017-01-06T06:12:56.271Z,0
2017-01-06T06:13:56.255Z,0
2017-01-06T06:14:56.228Z,0
2017-01-06T06:15:56.196Z,0
2017-01-06T06:16:56.166Z,0
2017-01-06T06:17:56.131Z,0
2017-01-06T06:18:56.090Z,0
2017-01-06T06:19:56.061Z,0
2017-01-06T06:20:56.026Z,0
2017-01-06T06:21:55.992Z,0
2017-01-06T06:22:55.959Z,0
2017-01-06T06:23:55.941Z,0
2017-01-06T06:24:55.902Z,0
2017-01-06T06:25:55.861Z,0
2017-01-06T06:26:55.838Z,0
2017-01-06T06:27:55.805Z,0
2017-01-06T06:28:55.758Z,0
2017-01-06T06:29:55.733Z,0
2017-01-06T06:30:55.709Z,4
2017-01-06T06:31:55.680Z,4
2017-01-06T06:32:55.651Z,0
2017-01-06T06:33:55.609Z,4
2017-01-06T06:34:55.574Z,4
2017-01-06T06:35:55.545Z,4
2017-01-06T06:36:55.510Z,4
2017-01-06T06:37:55.479Z,4
2017-01-06T06:38:55.448Z,8
2017-01-06T06:39:55.410Z,8
2017-01-06T06:40:55.382Z,8
2017-01-06T06:41:55.355Z,8
2017-01-06T06:42:55.319Z,12
2017-01-06T06:43:55.282Z,12
2017-01-06T06:44:55.259Z,16
2017-01-06T06:45:55.223Z,16
2017-01-06T06:46:55.191Z,20
2017-01-06T06:47:55.158Z,28
2017-01-06T06:48:55.132Z,28
2017-01-06T06:49:55.091Z,32
2017-01-06T06:50:55.051Z,36
2017-01-06T06:51:55.034Z,44
2017-01-06T06:52:55.005Z,48
2017-01-06T06:53:54.966Z,52
2017-01-06T06:54:54.918Z,60
2017-01-06T06:55:54.898Z,64
2017-01-06T06:56:54.865Z,72
2017-01-06T06:57:54.825Z,80
2017-01-06T06:58:54.789Z,88
2017-01-06T06:59:54.780Z,96
2017-01-06T07:00:54.738Z,104
2017-01-06T07:01:54.704Z,112
2017-01-06T07:02:54.684Z,120
2017-01-06T07:03:54.643Z,132
2017-01-06T07:04:54.599Z,140
2017-01-06T07:05:54.581Z,152
2017-01-06T07:06:54.573Z,168
2017-01-06T07:07:54.514Z,180
2017-01-06T07:08:54.479Z,196
2017-01-06T07:09:54.446Z,212
2017-01-06T07:10:54.406Z,240
2017-01-06T07:11:54.382Z,248
2017-01-06T07:12:54.348Z,260
2017-01-06T07:13:54.320Z,300
2017-01-06T07:14:54.268Z,424
2017-01-06T07:15:54.244Z,516
2017-01-06T07:16:54.223Z,452
2017-01-06T07:17:54.191Z,508
2017-01-06T07:18:54.160Z,884
2017-01-06T07:19:54.126Z,888
2017-01-06T07:20:54.099Z,404
2017-01-06T07:21:54.061Z,1056
2017-01-06T07:22:54.025Z,1124
2017-01-06T07:23:54.002Z,1208
2017-01-06T07:24:53.968Z,1272
2017-01-06T07:25:53.928Z,1340
2017-01-06T07:26:53.896Z,1404
2017-01-06T07:27:53.866Z,1480
2017-01-06T07:28:53.831Z,1548
2017-01-06T07:29:53.788Z,1616
2017-01-06T07:30:53.759Z,1680
2017-01-06T07:31:53.751Z,1748
2017-01-06T07:32:53.722Z,1844
2017-01-06T07:33:53.676Z,1892
2017-01-06T07:34:53.660Z,1944
2017-01-06T07:35:53.614Z,2008
2017-01-06T07:36:53.589Z,1932
2017-01-06T07:37:53.548Z,1972
2017-01-06T07:38:53.525Z,2196
2017-01-06T07:39:53.477Z,2308
2017-01-06T07:40:53.457Z,2348
2017-01-06T07:41:53.429Z,2428
2017-01-06T07:42:53.389Z,2520
2017-01-06T07:43:53.366Z,2588
2017-01-06T07:44:53.328Z,2628
2017-01-06T07:45:53.303Z,2724
2017-01-06T07:46:53.274Z,2720
2017-01-06T07:47:53.232Z,2692
2017-01-06T07:48:53.210Z,2672
2017-01-06T07:49:53.188Z,2152
2017-01-06T07:50:53.158Z,2372
2017-01-06T07:51:53.508Z,2912
2017-01-06T07:52:53.093Z,2808
2017-01-06T07:53:53.063Z,2900
2017-01-06T07:54:53.023Z,2532
2017-01-06T07:55:53.010Z,2828
2017-01-06T07:56:52.980Z,3308
2017-01-06T07:57:52.941Z,2780
2017-01-06T07:58:52.924Z,2880
2017-01-06T07:59:52.886Z,2756
2017-01-06T08:00:52.878Z,2468
2017-01-06T08:01:52.825Z,3052
2017-01-06T08:02:52.801Z,3960
2017-01-06T08:03:52.771Z,3924
2017-01-06T08:04:52.739Z,3764
2017-01-06T08:05:52.720Z,3652
2017-01-06T08:06:52.682Z,3344
2017-01-06T08:07:52.664Z,4080
2017-01-06T08:08:52.623Z,4092
2017-01-06T08:09:52.607Z,4144
2017-01-06T08:10:52.966Z,4192
2017-01-06T08:11:52.542Z,4216
2017-01-06T08:12:52.508Z,4248
2017-01-06T08:13:52.493Z,4280
2017-01-06T08:14:52.457Z,4320
2017-01-06T08:15:52.438Z,4360
2017-01-06T08:16:52.404Z,4412
2017-01-06T08:17:52.389Z,4440
2017-01-06T08:18:52.358Z,4492
2017-01-06T08:19:52.321Z,4540
2017-01-06T08:20:52.297Z,4608
2017-01-06T08:21:52.276Z,4648
2017-01-06T08:22:52.239Z,4696
2017-01-06T08:23:52.205Z,4752
2017-01-06T08:24:52.199Z,4804
2017-01-06T08:25:52.162Z,4880
2017-01-06T08:26:52.120Z,4928
2017-01-06T08:27:52.101Z,4984
2017-01-06T08:28:52.083Z,5008
2017-01-06T08:29:52.052Z,5080
2017-01-06T08:30:52.025Z,5144
2017-01-06T08:31:51.980Z,5212
2017-01-06T08:32:51.975Z,5292
2017-01-06T08:33:51.944Z,5328
2017-01-06T08:34:51.913Z,5368
2017-01-06T08:35:51.881Z,5428
2017-01-06T08:36:51.854Z,4760
2017-01-06T08:37:51.833Z,3888
2017-01-06T08:38:51.796Z,4884
2017-01-06T08:39:51.782Z,4716
2017-01-06T08:40:51.749Z,3820
2017-01-06T08:41:51.710Z,3544
2017-01-06T08:42:51.689Z,5404
2017-01-06T08:43:51.668Z,5720
2017-01-06T08:44:51.628Z,5940
2017-01-06T08:45:51.662Z,5860
2017-01-06T08:46:51.585Z,5328
2017-01-06T08:47:51.554Z,4768
2017-01-06T08:48:51.538Z,5176
2017-01-06T08:49:51.513Z,5692
2017-01-06T08:50:51.512Z,6052
2017-01-06T08:51:51.459Z,5264
2017-01-06T08:52:51.423Z,5116
2017-01-06T08:53:51.412Z,6060
2017-01-06T08:54:51.380Z,5932
2017-01-06T08:55:51.770Z,5952
2017-01-06T08:56:51.328Z,5960
2017-01-06T08:57:51.308Z,5976
2017-01-06T08:58:51.280Z,6004
2017-01-06T08:59:51.248Z,6020
2017-01-06T09:00:51.229Z,6032
2017-01-06T09:01:51.195Z,6080
2017-01-06T09:02:51.176Z,6104
2017-01-06T09:03:51.136Z,6136
2017-01-06T09:04:51.120Z,6164
2017-01-06T09:05:51.087Z,6192
2017-01-06T09:06:51.062Z,6220
2017-01-06T09:07:51.044Z,6240
2017-01-06T09:08:51.023Z,6284
2017-01-06T09:09:50.987Z,6316
2017-01-06T09:10:50.957Z,6340
2017-01-06T09:11:50.939Z,6364
2017-01-06T09:12:50.915Z,6396
2017-01-06T09:13:50.891Z,6428
2017-01-06T09:14:50.867Z,6448
2017-01-06T09:15:50.844Z,6480
2017-01-06T09:16:50.817Z,6500
2017-01-06T09:17:50.776Z,6528
2017-01-06T09:18:50.751Z,6548
2017-01-06T09:19:50.740Z,6568
2017-01-06T09:20:50.698Z,6592
2017-01-06T09:21:50.704Z,6612
2017-01-06T09:22:50.658Z,6628
2017-01-06T09:23:50.639Z,6656
2017-01-06T09:24:50.615Z,6668
2017-01-06T09:25:50.582Z,6696
2017-01-06T09:26:50.555Z,6728
2017-01-06T09:27:50.536Z,6736
2017-01-06T09:28:50.499Z,6764
2017-01-06T09:29:50.515Z,6804
2017-01-06T09:30:50.451Z,6808
2017-01-06T09:31:50.434Z,6856
2017-01-06T09:32:50.411Z,6880
2017-01-06T09:33:50.387Z,6896
2017-01-06T09:34:50.344Z,6928
2017-01-06T09:35:50.332Z,6948
2017-01-06T09:36:50.304Z,6964
2017-01-06T09:37:50.273Z,6992
2017-01-06T09:38:50.255Z,7008
2017-01-06T09:39:50.234Z,7016
2017-01-06T09:40:50.201Z,7024
2017-01-06T09:41:50.174Z,7060
2017-01-06T09:42:50.165Z,7060
2017-01-06T09:43:50.126Z,7084
2017-01-06T09:44:50.097Z,7104
2017-01-06T09:45:50.069Z,7120
2017-01-06T09:46:50.055Z,7144
2017-01-06T09:47:50.034Z,7152
2017-01-06T09:48:50.010Z,7168
2017-01-06T09:49:49.974Z,7184
2017-01-06T09:50:49.964Z,7192
2017-01-06T09:51:49.927Z,7208
2017-01-06T09:52:49.902Z,7236
2017-01-06T09:53:49.878Z,7252
2017-01-06T09:54:49.853Z,7268
2017-01-06T09:55:49.827Z,7276
2017-01-06T09:56:49.805Z,7300
2017-01-06T09:57:49.791Z,7312
2017-01-06T09:58:49.758Z,7332
2017-01-06T09:59:49.730Z,7332
2017-01-06T10:00:49.717Z,7348
2017-01-06T10:01:49.681Z,7344
2017-01-06T10:02:49.664Z,7364
2017-01-06T10:03:49.635Z,7388
2017-01-06T10:04:49.612Z,7388
2017-01-06T10:05:49.587Z,7392
2017-01-06T10:06:49.560Z,7408
2017-01-06T10:07:49.526Z,7420
2017-01-06T10:08:49.509Z,7432
2017-01-06T10:09:49.491Z,7444
2017-01-06T10:10:49.464Z,7448
2017-01-06T10:11:49.446Z,7460
2017-01-06T10:12:49.421Z,7464
2017-01-06T10:13:49.392Z,7488
2017-01-06T10:14:49.400Z,7500
2017-01-06T10:15:49.349Z,7504
2017-01-06T10:16:49.317Z,7516
2017-01-06T10:17:49.303Z,7528
2017-01-06T10:18:49.288Z,7524
2017-01-06T10:19:49.247Z,7560
2017-01-06T10:20:49.240Z,7576
2017-01-06T10:21:49.199Z,7560
2017-01-06T10:22:49.174Z,7564
2017-01-06T10:23:49.159Z,7572
2017-01-06T10:24:49.538Z,7568
2017-01-06T10:25:49.116Z,7592
2017-01-06T10:26:49.095Z,7584
2017-01-06T10:27:49.062Z,7592
2017-01-06T10:28:49.052Z,7600
2017-01-06T10:29:49.015Z,7604
2017-01-06T10:30:48.985Z,7612
2017-01-06T10:31:48.979Z,7624
2017-01-06T10:32:49.036Z,7624
2017-01-06T10:33:48.921Z,7624
2017-01-06T10:34:48.896Z,7640
2017-01-06T10:35:48.872Z,7648
2017-01-06T10:36:48.836Z,7652
2017-01-06T10:37:48.818Z,7668
2017-01-06T10:38:48.799Z,7676
2017-01-06T10:39:48.779Z,7672
2017-01-06T10:40:48.748Z,7668
2017-01-06T10:41:48.736Z,7676
2017-01-06T10:42:48.703Z,7680
2017-01-06T10:43:48.687Z,7684
2017-01-06T10:44:48.647Z,7688
2017-01-06T10:45:48.620Z,7688
2017-01-06T10:46:48.599Z,7700
2017-01-06T10:47:48.569Z,7704
2017-01-06T10:48:48.552Z,7696
2017-01-06T10:49:48.535Z,7700
2017-01-06T10:50:48.490Z,7708
2017-01-06T10:51:48.468Z,7704
2017-01-06T10:52:48.458Z,7700
2017-01-06T10:53:48.431Z,7708
2017-01-06T10:54:48.417Z,7712
2017-01-06T10:55:48.387Z,7712
2017-01-06T10:56:48.362Z,7708
2017-01-06T10:57:48.332Z,7712
2017-01-06T10:58:48.351Z,7716
2017-01-06T10:59:48.283Z,7712
2017-01-06T11:00:48.254Z,7712
2017-01-06T11:01:48.246Z,7720
2017-01-06T11:02:48.215Z,7708
2017-01-06T11:03:48.192Z,7704
2017-01-06T11:04:48.164Z,7708
2017-01-06T11:05:48.143Z,7704
2017-01-06T11:06:48.118Z,7704
2017-01-06T11:07:48.087Z,7692
2017-01-06T11:08:48.069Z,7688
2017-01-06T11:09:48.051Z,7692
2017-01-06T11:10:48.030Z,7700
2017-01-06T11:11:48.029Z,7692
2017-01-06T11:12:47.971Z,7696
2017-01-06T11:13:47.956Z,7696
2017-01-06T11:14:47.928Z,7696
2017-01-06T11:15:47.934Z,7692
2017-01-06T11:16:47.896Z,7688
2017-01-06T11:17:47.871Z,7684
2017-01-06T11:18:47.846Z,7684
2017-01-06T11:19:47.815Z,7668
2017-01-06T11:20:47.787Z,7672
2017-01-06T11:21:47.768Z,7676
2017-01-06T11:22:47.745Z,7672
2017-01-06T11:23:47.736Z,7664
2017-01-06T11:24:47.703Z,7668
2017-01-06T11:25:47.686Z,7648
2017-01-06T11:26:47.649Z,7644
2017-01-06T11:27:47.647Z,7632
2017-01-06T11:28:47.613Z,7636
2017-01-06T11:29:47.582Z,7628
2017-01-06T11:30:47.566Z,7624
2017-01-06T11:31:47.560Z,7620
2017-01-06T11:32:47.522Z,7624
2017-01-06T11:33:47.493Z,7604
2017-01-06T11:34:47.480Z,7604
2017-01-06T11:35:47.448Z,7600
2017-01-06T11:36:47.424Z,7596
2017-01-06T11:37:47.400Z,7592
2017-01-06T11:38:47.381Z,7580
2017-01-06T11:39:47.365Z,7584
2017-01-06T11:40:47.344Z,7580
2017-01-06T11:41:47.324Z,7580
2017-01-06T11:42:47.304Z,7572
2017-01-06T11:43:47.279Z,7572
2017-01-06T11:44:47.261Z,7560
2017-01-06T11:45:47.216Z,7548
2017-01-06T11:46:47.202Z,7556
2017-01-06T11:47:47.187Z,7548
2017-01-06T11:48:47.157Z,7552
2017-01-06T11:49:47.147Z,7544
2017-01-06T11:50:47.142Z,7536
2017-01-06T11:51:47.098Z,7532
2017-01-06T11:52:47.074Z,7524
2017-01-06T11:53:47.049Z,7520
2017-01-06T11:54:47.033Z,7524
2017-01-06T11:55:46.999Z,7516
2017-01-06T11:56:46.980Z,7516
2017-01-06T11:57:46.951Z,7496
2017-01-06T11:58:46.937Z,7508
2017-01-06T11:59:46.907Z,7500
2017-01-06T12:00:46.886Z,7496
2017-01-06T12:01:46.878Z,7500
2017-01-06T12:02:46.843Z,7496
2017-01-06T12:03:46.814Z,7488
2017-01-06T12:04:46.803Z,7496
2017-01-06T12:05:46.773Z,7492
2017-01-06T12:06:46.748Z,7496
2017-01-06T12:07:46.731Z,7508
2017-01-06T12:08:46.691Z,7488
2017-01-06T12:09:46.671Z,7484
2017-01-06T12:10:46.662Z,7504
2017-01-06T12:11:46.641Z,7512
2017-01-06T12:12:46.609Z,7496
2017-01-06T12:13:46.579Z,7500
2017-01-06T12:14:46.554Z,7520
2017-01-06T12:15:46.529Z,7508
2017-01-06T12:16:46.508Z,7488
2017-01-06T12:17:46.490Z,7492
2017-01-06T12:18:46.467Z,7488
2017-01-06T12:19:46.443Z,7488
2017-01-06T12:20:46.428Z,7504
2017-01-06T12:21:46.395Z,7504
2017-01-06T12:22:46.367Z,7496
2017-01-06T12:23:46.350Z,7504
2017-01-06T12:24:46.329Z,7492
2017-01-06T12:25:46.308Z,7492
2017-01-06T12:26:46.279Z,7484
2017-01-06T12:27:46.270Z,7488
2017-01-06T12:28:46.240Z,7496
2017-01-06T12:29:46.221Z,7496
2017-01-06T12:30:46.188Z,7496
2017-01-06T12:31:46.172Z,7484
2017-01-06T12:32:46.351Z,7488
2017-01-06T12:33:46.124Z,7496
2017-01-06T12:34:46.103Z,7488
2017-01-06T12:35:46.073Z,7492
2017-01-06T12:36:46.051Z,7508
2017-01-06T12:37:46.042Z,7496
2017-01-06T12:38:46.009Z,7476
2017-01-06T12:39:45.989Z,7488
2017-01-06T12:40:45.961Z,7488
2017-01-06T12:41:45.937Z,7496
2017-01-06T12:42:45.930Z,7512
2017-01-06T12:43:45.893Z,7512
2017-01-06T12:44:45.883Z,7496
2017-01-06T12:45:45.860Z,7504
2017-01-06T12:46:45.826Z,7512
2017-01-06T12:47:45.809Z,7508
2017-01-06T12:48:45.793Z,7520
2017-01-06T12:49:45.770Z,7500
2017-01-06T12:50:45.753Z,7496
2017-01-06T12:51:45.724Z,7512
2017-01-06T12:52:45.709Z,7504
2017-01-06T12:53:45.675Z,7500
2017-01-06T12:54:45.649Z,7488
2017-01-06T12:55:45.682Z,7492
2017-01-06T12:56:45.594Z,7496
2017-01-06T12:57:45.794Z,7488
2017-01-06T12:58:45.763Z,7496
2017-01-06T12:59:45.725Z,7480
2017-01-06T13:00:45.547Z,7480
2017-01-06T13:01:45.488Z,7484
2017-01-06T13:02:45.469Z,7488
2017-01-06T13:03:45.458Z,7476
2017-01-06T13:04:45.418Z,7460
2017-01-06T13:05:45.402Z,7468
2017-01-06T13:06:45.379Z,7448
2017-01-06T13:07:45.364Z,7444
2017-01-06T13:08:45.337Z,7452
2017-01-06T13:09:45.303Z,7432
2017-01-06T13:10:45.275Z,7408
2017-01-06T13:11:45.267Z,7416
2017-01-06T13:12:45.225Z,7416
2017-01-06T13:13:45.215Z,7416
2017-01-06T13:14:45.182Z,7392
2017-01-06T13:15:45.194Z,7380
2017-01-06T13:16:45.129Z,7388
2017-01-06T13:17:45.135Z,7384
2017-01-06T13:18:45.085Z,7360
2017-01-06T13:19:45.062Z,7360
2017-01-06T13:20:45.047Z,7352
2017-01-06T13:21:45.020Z,7348
2017-01-06T13:22:44.984Z,7340
2017-01-06T13:23:45.179Z,7320
2017-01-06T13:24:45.142Z,7296
2017-01-06T13:25:45.116Z,7296
2017-01-06T13:26:44.897Z,7272
2017-01-06T13:27:44.875Z,7260
2017-01-06T13:28:44.853Z,7268
2017-01-06T13:29:44.809Z,7248
2017-01-06T13:30:44.802Z,7232
2017-01-06T13:31:45.205Z,7216
2017-01-06T13:32:44.760Z,7212
2017-01-06T13:33:44.718Z,7188
2017-01-06T13:34:44.699Z,7168
2017-01-06T13:35:44.659Z,7144
2017-01-06T13:36:44.651Z,7144
2017-01-06T13:37:44.612Z,7116
2017-01-06T13:38:44.588Z,7128
2017-01-06T13:39:44.555Z,7096
2017-01-06T13:40:44.548Z,7072
2017-01-06T13:41:44.560Z,7064
2017-01-06T13:42:44.503Z,7060
2017-01-06T13:43:44.468Z,7032
2017-01-06T13:44:44.442Z,7012
2017-01-06T13:45:44.425Z,6860
2017-01-06T13:46:44.389Z,6964
2017-01-06T13:47:44.374Z,6948
2017-01-06T13:48:44.336Z,6940
2017-01-06T13:49:44.320Z,6928
2017-01-06T13:50:44.493Z,6868
2017-01-06T13:51:44.261Z,6852
2017-01-06T13:52:44.247Z,6820
2017-01-06T13:53:44.204Z,6812
2017-01-06T13:54:44.174Z,6792
2017-01-06T13:55:44.153Z,6740
2017-01-06T13:56:44.139Z,6720
2017-01-06T13:57:44.205Z,6716
2017-01-06T13:58:44.098Z,6684
2017-01-06T13:59:44.064Z,6652